createdAt,value
2022-09-05T00:00:02.826Z,95801.81
2022-09-05T00:03:24.364Z,95804.66
2022-09-05T00:06:09.592Z,95810.16
2022-09-05T00:08:51.663Z,95786.78
2022-09-05T00:11:44.193Z,95781.13
2022-09-05T00:15:17.324Z,95770.81
2022-09-05T00:21:38.090Z,95754.22
2022-09-05T00:24:21.788Z,95744.56
2022-09-05T00:24:50.148Z,95748.31
2022-09-05T00:27:35.782Z,95741.88
2022-09-05T00:31:51.819Z,95758.13
2022-09-05T00:33:30.265Z,95747.00
2022-09-05T00:36:34.968Z,95742.59
2022-09-05T00:39:15.210Z,95748.72
2022-09-05T00:41:44.971Z,95738.19
2022-09-05T00:44:15.252Z,95743.84
2022-09-05T00:46:52.739Z,95735.91
2022-09-05T00:49:33.423Z,95735.97
2022-09-05T00:52:19.022Z,95734.94
2022-09-05T00:55:23.513Z,95726.66
2022-09-05T00:58:25.853Z,95724.22
2022-09-05T01:00:59.728Z,95721.81
2022-09-05T01:03:53.394Z,95706.97
2022-09-05T01:07:07.750Z,95726.25
2022-09-05T01:09:51.987Z,95725.13
2022-09-05T01:12:41.744Z,95724.31
2022-09-05T01:15:46.318Z,95711.25
2022-09-05T01:18:39.822Z,95697.31
2022-09-05T01:21:38.989Z,95713.16
2022-09-05T01:24:44.303Z,95699.88
2022-09-05T01:28:15.459Z,95703.88
2022-09-05T01:30:44.920Z,95705.03
2022-09-05T01:33:43.823Z,95711.28
2022-09-05T01:36:27.883Z,95694.69
2022-09-05T01:40:11.750Z,95694.34
2022-09-05T01:42:05.257Z,95685.88
2022-09-05T01:45:11.603Z,95695.31
2022-09-05T01:47:43.230Z,95703.28
2022-09-05T01:50:25.739Z,95695.88
2022-09-05T01:53:15.931Z,95706.72
2022-09-05T01:56:29.848Z,95705.75
2022-09-05T01:59:46.165Z,95700.25
2022-09-05T02:02:50.355Z,95697.22
2022-09-05T02:05:52.447Z,95697.03
2022-09-05T02:08:41.766Z,95689.00
2022-09-05T02:11:12.417Z,95679.44
2022-09-05T02:13:54.979Z,95694.97
2022-09-05T02:16:47.312Z,95697.97
2022-09-05T02:19:24.083Z,95678.25
2022-09-05T02:22:00.825Z,95689.72
2022-09-05T02:24:42.469Z,95681.44
2022-09-05T02:27:37.421Z,95696.78
2022-09-05T02:30:22.347Z,95674.78
2022-09-05T02:33:29.047Z,95676.84
2022-09-05T02:36:24.669Z,95675.00
2022-09-05T02:45:02.058Z,95659.88
2022-09-05T02:45:20.533Z,95665.38
2022-09-05T02:45:23.844Z,95671.44
2022-09-05T02:48:15.385Z,95684.94
2022-09-05T02:57:23.938Z,95676.59
2022-09-05T02:57:37.624Z,95679.59
2022-09-05T02:58:07.696Z,95693.78
2022-09-05T03:00:39.222Z,95670.69
2022-09-05T03:03:17.267Z,95680.88
2022-09-05T03:06:04.379Z,95681.72
2022-09-05T03:08:50.583Z,95678.41
2022-09-05T03:11:43.443Z,95672.38
2022-09-05T03:14:56.849Z,95669.88
2022-09-05T03:17:52.073Z,95675.41
2022-09-05T03:20:39.315Z,95666.03
2022-09-05T03:23:30.800Z,95670.84
2022-09-05T03:26:39.373Z,95663.69
2022-09-05T03:29:26.308Z,95665.56
2022-09-05T03:32:19.441Z,95666.88
2022-09-05T03:35:12.666Z,95660.06
2022-09-05T03:38:08.758Z,95672.56
2022-09-05T03:41:06.930Z,95655.91
2022-09-05T03:43:50.737Z,95666.25
2022-09-05T03:46:56.794Z,95656.25
2022-09-05T03:50:05.852Z,95641.31
2022-09-05T03:57:12.144Z,95645.00
2022-09-05T03:57:14.942Z,95638.94
2022-09-05T03:58:57.923Z,95643.13
2022-09-05T04:02:37.377Z,95645.78
2022-09-05T04:08:17.177Z,95649.00
2022-09-05T04:08:28.209Z,95637.06
2022-09-05T04:10:46.234Z,95635.59
2022-09-05T04:13:34.755Z,95630.19
2022-09-05T04:16:22.278Z,95628.88
2022-09-05T04:19:20.055Z,95635.00
2022-09-05T04:22:20.079Z,95629.03
2022-09-05T04:25:19.381Z,95637.69
2022-09-05T04:28:14.789Z,95634.56
2022-09-05T04:30:56.075Z,95616.75
2022-09-05T04:33:37.270Z,95636.25
2022-09-05T04:36:28.962Z,95620.97
2022-09-05T04:39:10.992Z,95616.44
2022-09-05T04:41:44.113Z,95623.06
2022-09-05T04:44:26.526Z,95627.28
2022-09-05T04:47:08.562Z,95628.16
2022-09-05T04:49:44.327Z,95614.53
2022-09-05T04:52:43.161Z,95603.16
2022-09-05T04:55:17.064Z,95619.41
2022-09-05T04:58:11.802Z,95620.63
2022-09-05T05:06:02.648Z,95622.09
2022-09-05T05:06:14.283Z,95621.41
2022-09-05T05:06:46.385Z,95611.13
2022-09-05T05:09:24.537Z,95610.97
2022-09-05T05:18:01.502Z,95611.25
2022-09-05T05:18:13.270Z,95604.91
2022-09-05T05:18:42.392Z,95604.16
2022-09-05T05:21:25.108Z,95615.75
2022-09-05T05:24:01.407Z,95601.13
2022-09-05T05:26:57.109Z,95607.81
2022-09-05T05:29:31.811Z,95603.38
2022-09-05T05:32:04.005Z,95600.94
2022-09-05T05:34:46.799Z,95595.38
2022-09-05T05:37:30.637Z,95589.59
2022-09-05T05:40:04.776Z,95593.59
2022-09-05T05:42:34.091Z,95577.41
2022-09-05T05:45:03.807Z,95575.16
2022-09-05T05:48:06.655Z,95583.13
2022-09-05T05:51:14.149Z,95566.34
2022-09-05T05:54:02.655Z,95568.47
2022-09-05T05:56:40.826Z,95575.72
2022-09-05T05:59:24.510Z,95577.81
2022-09-05T06:02:03.429Z,95571.47
2022-09-05T06:04:53.398Z,95574.91
2022-09-05T06:10:36.967Z,95572.81
2022-09-05T06:15:03.767Z,95579.78
2022-09-05T06:15:05.893Z,95585.78
2022-09-05T06:17:28.412Z,95577.84
2022-09-05T06:22:07.594Z,95560.47
2022-09-05T06:23:52.631Z,95578.69
2022-09-05T06:26:36.675Z,95570.56
2022-09-05T06:29:38.644Z,95564.25
2022-09-05T06:32:35.012Z,95564.50
2022-09-05T06:35:41.205Z,95550.91
2022-09-05T06:38:27.548Z,95558.28
2022-09-05T06:41:33.087Z,95562.06
2022-09-05T06:44:23.975Z,95556.47
2022-09-05T06:47:23.760Z,95551.50
2022-09-05T06:50:26.746Z,95558.84
2022-09-05T06:53:20.133Z,95560.88
2022-09-05T06:56:26.236Z,95553.25
2022-09-05T06:59:23.290Z,95551.13
2022-09-05T07:02:09.243Z,95545.78
2022-09-05T07:05:38.327Z,95541.84
2022-09-05T07:07:49.134Z,95542.44
2022-09-05T07:10:38.849Z,95534.19
2022-09-05T07:13:21.181Z,95529.94
2022-09-05T07:15:52.874Z,95524.69
2022-09-05T07:18:38.375Z,95521.56
2022-09-05T07:21:35.286Z,95513.81
2022-09-05T07:24:11.142Z,95520.63
2022-09-05T07:26:54.757Z,95515.84
2022-09-05T07:29:37.879Z,95519.41
2022-09-05T07:32:09.223Z,95519.88
2022-09-05T07:34:39.093Z,95516.59
2022-09-05T07:37:29.526Z,95530.25
2022-09-05T07:40:26.148Z,95527.13
2022-09-05T07:43:10.494Z,95515.59
2022-09-05T07:45:53.577Z,95522.13
2022-09-05T07:48:34.963Z,95513.03
2022-09-05T07:55:46.404Z,95513.09
2022-09-05T07:57:01.327Z,95523.41
2022-09-05T07:57:30.911Z,95509.34
2022-09-05T08:00:23.044Z,95516.47
2022-09-05T08:03:00.167Z,95521.66
2022-09-05T08:05:51.300Z,95512.56
2022-09-05T08:08:25.946Z,95514.31
2022-09-05T08:11:25.021Z,95512.56
2022-09-05T08:14:40.551Z,95502.94
2022-09-05T08:16:56.529Z,95503.81
2022-09-05T08:20:08.277Z,95506.13
2022-09-05T08:22:57.276Z,95506.25
2022-09-05T08:25:57.035Z,95507.63
2022-09-05T08:28:56.177Z,95507.44
2022-09-05T08:31:38.583Z,95520.47
2022-09-05T08:34:26.501Z,95520.28
2022-09-05T08:37:21.820Z,95514.22
2022-09-05T08:40:10.233Z,95523.53
2022-09-05T08:42:58.748Z,95519.13
2022-09-05T08:46:41.810Z,95519.25
2022-09-05T08:49:36.967Z,95517.84
2022-09-05T08:52:28.351Z,95518.69
2022-09-05T08:55:12.261Z,95509.78
2022-09-05T08:57:47.536Z,95500.50
2022-09-05T09:00:24.509Z,95507.63
2022-09-05T09:03:12.517Z,95500.75
2022-09-05T09:06:12.870Z,95500.69
2022-09-05T09:08:48.923Z,95504.03
2022-09-05T09:11:51.593Z,95497.59
2022-09-05T09:14:44.383Z,95510.59
2022-09-05T09:17:34.158Z,95511.78
2022-09-05T09:20:34.151Z,95506.22
2022-09-05T09:23:37.356Z,95513.66
2022-09-05T09:26:18.301Z,95526.84
2022-09-05T09:28:51.664Z,95533.00
2022-09-05T09:31:32.511Z,95528.75
2022-09-05T09:34:27.782Z,95515.81
2022-09-05T09:37:05.906Z,95525.97
2022-09-05T09:40:09.844Z,95529.53
2022-09-05T09:42:46.226Z,95535.00
2022-09-05T09:45:28.501Z,95541.66
2022-09-05T09:48:25.564Z,95533.81
2022-09-05T09:51:06.454Z,95536.97
2022-09-05T09:53:48.486Z,95535.16
2022-09-05T09:56:36.473Z,95538.94
2022-09-05T09:59:54.286Z,95537.03
2022-09-05T10:05:27.487Z,95537.78
2022-09-05T10:10:37.772Z,95535.75
2022-09-05T10:10:44.731Z,95548.31
2022-09-05T10:13:08.743Z,95550.34
2022-09-05T10:15:48.108Z,95557.94
2022-09-05T10:18:34.712Z,95558.06
2022-09-05T10:21:32.969Z,95560.16
2022-09-05T10:24:38.305Z,95553.38
2022-09-05T10:27:09.859Z,95561.75
2022-09-05T10:29:49.397Z,95564.31
2022-09-05T10:35:11.420Z,95559.34
2022-09-05T10:35:29.835Z,95571.13
2022-09-05T10:38:10.164Z,95571.97
2022-09-05T10:41:19.787Z,95570.88
2022-09-05T10:44:06.925Z,95579.53
2022-09-05T10:47:00.618Z,95583.50
2022-09-05T10:49:35.488Z,95573.91
2022-09-05T10:52:20.559Z,95577.84
2022-09-05T10:55:14.009Z,95580.28
2022-09-05T10:58:07.571Z,95576.50
2022-09-05T11:02:29.183Z,95587.84
2022-09-05T11:04:07.233Z,95582.22
2022-09-05T11:06:50.028Z,95584.69
2022-09-05T11:09:39.041Z,95586.31
2022-09-05T11:12:21.488Z,95593.81
2022-09-05T11:14:54.572Z,95590.00
2022-09-05T11:17:45.965Z,95585.84
2022-09-05T11:20:34.987Z,95593.66
2022-09-05T11:23:18.516Z,95600.38
2022-09-05T11:25:51.690Z,95587.22
2022-09-05T11:28:55.864Z,95603.53
2022-09-05T11:32:05.817Z,95606.66
2022-09-05T11:40:04.006Z,95613.69
2022-09-05T11:40:10.678Z,95616.41
2022-09-05T11:41:13.229Z,95621.91
2022-09-05T11:44:24.439Z,95614.25
2022-09-05T11:47:27.017Z,95615.91
2022-09-05T11:50:33.298Z,95628.34
2022-09-05T11:53:38.319Z,95637.00
2022-09-05T11:56:45.598Z,95638.34
2022-09-05T11:59:19.585Z,95646.97
2022-09-05T12:02:37.730Z,95643.22
2022-09-05T12:05:50.767Z,95646.00
2022-09-05T12:08:49.429Z,95653.75
2022-09-05T12:12:27.002Z,95655.38
2022-09-05T12:15:34.720Z,95653.88
2022-09-05T12:18:30.715Z,95645.78
2022-09-05T12:21:19.636Z,95648.94
2022-09-05T12:25:15.860Z,95646.66
2022-09-05T12:27:44.234Z,95649.03
2022-09-05T12:30:00.454Z,95663.00
2022-09-05T12:32:32.316Z,95655.69
2022-09-05T12:36:10.931Z,95651.88
2022-09-05T12:41:32.355Z,95654.97
2022-09-05T12:42:10.595Z,95656.88
2022-09-05T12:44:52.689Z,95659.25
2022-09-05T12:47:26.386Z,95669.31
2022-09-05T12:50:15.283Z,95670.50
2022-09-05T12:52:54.450Z,95675.13
2022-09-05T12:55:47.068Z,95672.47
2022-09-05T13:02:58.521Z,95684.41
2022-09-05T13:03:13.990Z,95684.41
2022-09-05T13:04:31.290Z,95685.22
2022-09-05T13:07:10.241Z,95694.50
2022-09-05T13:11:17.288Z,95686.75
2022-09-05T13:14:54.747Z,95693.34
2022-09-05T13:15:44.098Z,95689.09
2022-09-05T13:18:16.813Z,95693.78
2022-09-05T13:21:09.164Z,95698.38
2022-09-05T13:23:48.701Z,95697.22
2022-09-05T13:26:44.357Z,95699.94
2022-09-05T13:29:19.561Z,95709.63
2022-09-05T13:37:54.633Z,95709.63
2022-09-05T13:38:13.186Z,95720.44
2022-09-05T13:38:14.754Z,95721.59
2022-09-05T13:40:45.233Z,95716.19
2022-09-05T13:43:17.309Z,95715.44
2022-09-05T13:45:55.249Z,95715.44
2022-09-05T13:51:47.322Z,95716.63
2022-09-05T13:54:39.420Z,95723.56
2022-09-05T13:57:47.165Z,95732.84
2022-09-05T14:00:29.027Z,95735.59
2022-09-05T14:03:51.075Z,95734.44
2022-09-05T14:06:46.644Z,95726.34
2022-09-05T14:09:55.279Z,95732.50
2022-09-05T14:12:33.988Z,95722.84
2022-09-05T14:15:24.993Z,95732.91
2022-09-05T14:18:20.321Z,95728.66
2022-09-05T14:21:11.253Z,95738.72
2022-09-05T14:23:54.158Z,95730.56
2022-09-05T14:26:34.130Z,95729.78
2022-09-05T14:29:25.759Z,95727.88
2022-09-05T14:37:40.123Z,95718.59
2022-09-05T14:37:55.377Z,95724.38
2022-09-05T14:38:56.217Z,95720.53
2022-09-05T14:42:07.882Z,95717.81
2022-09-05T14:44:54.470Z,95720.16
2022-09-05T14:47:34.903Z,95727.88
2022-09-05T14:50:35.404Z,95715.88
2022-09-05T14:57:43.747Z,95717.44
2022-09-05T15:02:43.175Z,95714.72
2022-09-05T15:02:56.991Z,95713.56
2022-09-05T15:05:11.199Z,95709.31
2022-09-05T15:07:48.286Z,95721.69
2022-09-05T15:12:24.881Z,95720.50
2022-09-05T15:13:12.086Z,95718.59
2022-09-05T15:16:02.330Z,95715.88
2022-09-05T15:18:37.572Z,95718.59
2022-09-05T15:21:33.639Z,95707.00
2022-09-05T15:24:21.506Z,95713.53
2022-09-05T15:26:59.172Z,95722.41
2022-09-05T15:29:37.075Z,95731.31
2022-09-05T15:32:22.112Z,95725.50
2022-09-05T15:34:52.379Z,95728.19
2022-09-05T15:37:37.659Z,95740.19
2022-09-05T15:40:23.373Z,95752.91
2022-09-05T15:42:58.427Z,95750.97
2022-09-05T15:45:37.013Z,95759.47
2022-09-05T15:48:26.725Z,95761.78
2022-09-05T15:51:33.121Z,95771.03
2022-09-05T15:54:04.126Z,95767.91
2022-09-05T15:56:37.388Z,95771.78
2022-09-05T15:59:06.490Z,95772.94
2022-09-05T16:01:58.902Z,95782.22
2022-09-05T16:10:27.773Z,95783.78
2022-09-05T16:10:29.649Z,95777.56
2022-09-05T16:10:38.774Z,95786.00
2022-09-05T16:13:16.204Z,95782.53
2022-09-05T16:23:19.404Z,95786.34
2022-09-05T16:23:33.601Z,95780.91
2022-09-05T16:23:34.733Z,95780.16
2022-09-05T16:24:58.201Z,95776.63
2022-09-05T16:27:50.304Z,95776.97
2022-09-05T16:30:32.915Z,95787.34
2022-09-05T16:33:23.757Z,95792.72
2022-09-05T16:35:58.449Z,95792.28
2022-09-05T16:38:49.652Z,95783.81
2022-09-05T16:41:42.894Z,95788.41
2022-09-05T16:44:30.789Z,95802.31
2022-09-05T16:47:32.587Z,95801.94
2022-09-05T16:50:17.262Z,95800.03
2022-09-05T16:52:54.201Z,95796.16
2022-09-05T16:55:38.368Z,95783.34
2022-09-05T16:58:22.856Z,95788.31
2022-09-05T17:01:11.595Z,95788.25
2022-09-05T17:03:58.641Z,95798.56
2022-09-05T17:06:43.753Z,95793.53
2022-09-05T17:09:29.829Z,95792.31
2022-09-05T17:12:07.637Z,95794.59
2022-09-05T17:14:54.516Z,95785.31
2022-09-05T17:18:19.597Z,95782.63
2022-09-05T17:20:23.227Z,95793.78
2022-09-05T17:27:53.916Z,95786.03
2022-09-05T17:29:25.250Z,95794.81
2022-09-05T17:29:49.901Z,95797.81
2022-09-05T17:31:57.016Z,95791.22
2022-09-05T17:34:51.713Z,95793.47
2022-09-05T17:37:46.604Z,95793.44
2022-09-05T17:40:47.317Z,95782.22
2022-09-05T17:43:43.104Z,95788.00
2022-09-05T17:46:18.653Z,95792.25
2022-09-05T17:48:54.881Z,95794.91
2022-09-05T17:51:51.544Z,95790.22
2022-09-05T17:54:28.166Z,95796.66
2022-09-05T17:56:57.071Z,95790.84
2022-09-05T17:59:28.928Z,95787.66
2022-09-05T18:02:04.402Z,95794.16
2022-09-05T18:04:48.385Z,95804.84
2022-09-05T18:07:26.529Z,95801.69
2022-09-05T18:10:15.552Z,95797.84
2022-09-05T18:13:31.827Z,95798.41
2022-09-05T18:16:02.134Z,95792.69
2022-09-05T18:19:29.011Z,95795.38
2022-09-05T18:21:42.833Z,95798.47
2022-09-05T18:24:55.331Z,95796.91
2022-09-05T18:28:05.446Z,95801.91
2022-09-05T18:30:36.526Z,95800.78
2022-09-05T18:33:53.304Z,95802.78
2022-09-05T18:35:57.752Z,95806.72
2022-09-05T18:38:51.098Z,95803.94
2022-09-05T18:41:25.770Z,95799.97
2022-09-05T18:44:13.322Z,95799.91
2022-09-05T18:46:55.963Z,95798.28
2022-09-05T18:50:25.014Z,95805.94
2022-09-05T18:52:35.037Z,95806.75
2022-09-05T18:56:09.204Z,95813.44
2022-09-05T18:58:03.055Z,95809.66
2022-09-05T19:00:45.051Z,95815.53
2022-09-05T19:03:34.224Z,95811.38
2022-09-05T19:06:35.752Z,95815.63
2022-09-05T19:09:05.400Z,95814.19
2022-09-05T19:12:20.995Z,95821.91
2022-09-05T19:15:08.266Z,95820.72
2022-09-05T19:17:45.473Z,95825.28
2022-09-05T19:20:32.515Z,95819.81
2022-09-05T19:23:10.155Z,95825.13
2022-09-05T19:25:46.009Z,95825.84
2022-09-05T19:35:25.801Z,95818.09
2022-09-05T19:37:13.896Z,95817.25
2022-09-05T19:37:15.605Z,95817.88
2022-09-05T19:37:38.773Z,95832.03
2022-09-05T19:46:32.086Z,95826.50
2022-09-05T19:47:39.849Z,95831.41
2022-09-05T19:47:50.280Z,95836.06
2022-09-05T19:48:34.906Z,95836.09
2022-09-05T19:51:17.928Z,95833.50
2022-09-05T19:53:53.999Z,95831.66
2022-09-05T19:56:43.858Z,95835.16
2022-09-05T19:59:34.179Z,95837.41
2022-09-05T20:02:05.476Z,95838.06
2022-09-05T20:04:45.471Z,95847.59
2022-09-05T20:07:20.138Z,95842.06
2022-09-05T20:09:51.399Z,95845.03
2022-09-05T20:12:31.962Z,95846.31
2022-09-05T20:15:23.712Z,95836.44
2022-09-05T20:17:54.519Z,95847.03
2022-09-05T20:20:26.769Z,95839.50
2022-09-05T20:23:05.189Z,95845.81
2022-09-05T20:25:42.745Z,95839.06
2022-09-05T20:28:16.059Z,95830.47
2022-09-05T20:30:48.540Z,95836.44
2022-09-05T20:33:29.241Z,95832.41
2022-09-05T20:43:08.668Z,95833.41
2022-09-05T20:43:16.108Z,95838.63
2022-09-05T20:43:27.793Z,95846.56
2022-09-05T20:44:51.275Z,95842.63
2022-09-05T20:50:22.372Z,95839.09
2022-09-05T20:54:08.936Z,95837.88
2022-09-05T20:54:27.714Z,95844.72
2022-09-05T20:56:31.486Z,95843.88
2022-09-05T20:59:01.480Z,95835.38
2022-09-05T21:01:33.185Z,95848.75
2022-09-05T21:04:06.927Z,95841.81
2022-09-05T21:06:37.614Z,95845.28
2022-09-05T21:09:24.269Z,95842.94
2022-09-05T21:12:00.430Z,95856.00
2022-09-05T21:14:30.038Z,95849.88
2022-09-05T21:17:04.934Z,95861.31
2022-09-05T21:19:53.591Z,95856.31
2022-09-05T21:22:43.714Z,95854.41
2022-09-05T21:25:15.782Z,95857.50
2022-09-05T21:28:03.244Z,95857.16
2022-09-05T21:30:37.097Z,95855.31
2022-09-05T21:33:17.348Z,95857.03
2022-09-05T21:35:52.154Z,95861.41
2022-09-05T21:38:32.371Z,95861.91
2022-09-05T21:41:05.945Z,95862.75
2022-09-05T21:47:34.866Z,95853.97
2022-09-05T21:47:41.844Z,95862.59
2022-09-05T21:49:19.534Z,95850.66
2022-09-05T21:51:50.947Z,95856.78
2022-09-05T21:59:13.391Z,95853.25
2022-09-05T21:59:24.726Z,95860.06
2022-09-05T22:00:26.973Z,95857.75
2022-09-05T22:02:56.174Z,95863.47
2022-09-05T22:05:26.037Z,95861.81
2022-09-05T22:07:55.167Z,95859.34
2022-09-05T22:10:23.979Z,95862.22
2022-09-05T22:13:13.388Z,95860.53
2022-09-05T22:15:42.192Z,95864.97
2022-09-05T22:18:17.439Z,95870.63
2022-09-05T22:21:29.536Z,95860.16
2022-09-05T22:23:44.838Z,95867.78
2022-09-05T22:26:16.104Z,95871.59
2022-09-05T22:28:54.242Z,95870.81
2022-09-05T22:31:23.446Z,95879.19
2022-09-05T22:33:52.577Z,95876.00
2022-09-05T22:36:21.452Z,95880.88
2022-09-05T22:38:50.367Z,95880.00
2022-09-05T22:41:30.406Z,95884.94
2022-09-05T22:44:00.070Z,95885.13
2022-09-05T22:46:29.801Z,95895.34
2022-09-05T22:48:58.705Z,95895.41
2022-09-05T22:51:27.576Z,95895.50
2022-09-05T22:53:56.493Z,95907.59
2022-09-05T22:56:51.655Z,95908.56
2022-09-05T22:59:20.477Z,95903.34
2022-09-05T23:01:51.824Z,95911.56
2022-09-05T23:04:21.194Z,95920.53
2022-09-05T23:06:50.105Z,95919.16
2022-09-05T23:09:18.849Z,95928.97
2022-09-05T23:11:47.642Z,95912.69
2022-09-05T23:14:16.413Z,95913.78
2022-09-05T23:16:45.252Z,95905.94
2022-09-05T23:19:14.140Z,95910.25
2022-09-05T23:21:51.957Z,95910.59
2022-09-05T23:24:20.798Z,95903.16
2022-09-05T23:26:49.608Z,95898.78
2022-09-05T23:29:18.543Z,95908.41
2022-09-05T23:31:47.347Z,95913.50
2022-09-05T23:34:16.115Z,95912.91
2022-09-05T23:36:44.922Z,95913.84
2022-09-05T23:39:13.770Z,95924.00
2022-09-05T23:41:42.664Z,95927.97
2022-09-05T23:44:11.378Z,95928.06
2022-09-05T23:46:40.990Z,95922.38
2022-09-05T23:49:09.932Z,95922.44
2022-09-05T23:51:38.819Z,95919.78
2022-09-05T23:54:07.916Z,95924.78
2022-09-05T23:56:36.746Z,95908.59
2022-09-05T23:59:05.525Z,95913.81
